sensor_id;sensor_type;location;lat;lon;timestamp;pressure;altitude;pressure_sealevel;temperature;humidity
8705;BME280;4389;41.932;25.904;2023-06-24T00:02:03;100509.00;;;22.06;64.35
8705;BME280;4389;41.932;25.904;2023-06-24T00:04:31;100512.94;;;21.90;64.88
8705;BME280;4389;41.932;25.904;2023-06-24T00:06:59;100516.25;;;22.05;64.33
8705;BME280;4389;41.932;25.904;2023-06-24T00:09:26;100510.69;;;21.87;64.86
8705;BME280;4389;41.932;25.904;2023-06-24T00:11:53;100506.72;;;21.83;64.84
8705;BME280;4389;41.932;25.904;2023-06-24T00:14:20;100499.88;;;21.81;64.80
8705;BME280;4389;41.932;25.904;2023-06-24T00:16:49;100500.13;;;21.79;64.95
8705;BME280;4389;41.932;25.904;2023-06-24T00:19:18;100505.50;;;21.79;64.54
8705;BME280;4389;41.932;25.904;2023-06-24T00:21:48;100507.16;;;21.80;64.54
8705;BME280;4389;41.932;25.904;2023-06-24T00:24:17;100509.22;;;21.85;64.32
8705;BME280;4389;41.932;25.904;2023-06-24T00:26:45;100513.78;;;21.84;64.17
8705;BME280;4389;41.932;25.904;2023-06-24T00:29:12;100501.78;;;21.74;64.83
8705;BME280;4389;41.932;25.904;2023-06-24T00:31:39;100502.19;;;21.71;65.50
8705;BME280;4389;41.932;25.904;2023-06-24T00:34:06;100505.44;;;21.53;66.04
8705;BME280;4389;41.932;25.904;2023-06-24T00:36:32;100499.25;;;21.59;66.46
8705;BME280;4389;41.932;25.904;2023-06-24T00:39:02;100496.75;;;21.51;66.86
8705;BME280;4389;41.932;25.904;2023-06-24T00:41:30;100506.50;;;21.52;67.33
8705;BME280;4389;41.932;25.904;2023-06-24T00:43:57;100497.78;;;21.37;68.21
8705;BME280;4389;41.932;25.904;2023-06-24T00:46:24;100496.31;;;21.28;68.96
8705;BME280;4389;41.932;25.904;2023-06-24T00:48:51;100501.69;;;21.28;69.76
8705;BME280;4389;41.932;25.904;2023-06-24T00:51:18;100493.78;;;21.07;71.17
8705;BME280;4389;41.932;25.904;2023-06-24T00:53:46;100490.63;;;20.97;72.00
8705;BME280;4389;41.932;25.904;2023-06-24T00:56:17;100490.44;;;20.99;71.98
8705;BME280;4389;41.932;25.904;2023-06-24T00:58:44;100490.44;;;20.92;72.30
8705;BME280;4389;41.932;25.904;2023-06-24T01:01:12;100492.22;;;20.85;73.07
8705;BME280;4389;41.932;25.904;2023-06-24T01:03:40;100488.63;;;20.65;73.60
8705;BME280;4389;41.932;25.904;2023-06-24T01:06:08;100478.84;;;20.58;74.28
8705;BME280;4389;41.932;25.904;2023-06-24T01:08:35;100477.38;;;20.55;74.21
8705;BME280;4389;41.932;25.904;2023-06-24T01:11:01;100478.19;;;20.49;74.77
8705;BME280;4389;41.932;25.904;2023-06-24T01:13:30;100473.84;;;20.48;74.94
8705;BME280;4389;41.932;25.904;2023-06-24T01:16:00;100474.09;;;20.53;74.21
8705;BME280;4389;41.932;25.904;2023-06-24T01:18:32;100475.78;;;20.61;74.19
8705;BME280;4389;41.932;25.904;2023-06-24T01:21:06;100467.47;;;20.56;74.45
8705;BME280;4389;41.932;25.904;2023-06-24T01:23:59;100465.34;;;20.45;74.98
8705;BME280;4389;41.932;25.904;2023-06-24T01:27:08;100460.41;;;20.48;74.85
8705;BME280;4389;41.932;25.904;2023-06-24T01:29:51;100466.78;;;20.41;75.40
8705;BME280;4389;41.932;25.904;2023-06-24T01:32:29;100469.28;;;20.42;75.15
8705;BME280;4389;41.932;25.904;2023-06-24T01:35:02;100469.41;;;20.28;75.71
8705;BME280;4389;41.932;25.904;2023-06-24T01:37:37;100465.25;;;20.25;75.54
8705;BME280;4389;41.932;25.904;2023-06-24T01:40:11;100465.44;;;20.24;76.31
8705;BME280;4389;41.932;25.904;2023-06-24T01:42:40;100461.25;;;20.15;76.68
8705;BME280;4389;41.932;25.904;2023-06-24T01:45:12;100458.75;;;20.13;76.86
8705;BME280;4389;41.932;25.904;2023-06-24T01:47:44;100457.09;;;20.12;77.05
8705;BME280;4389;41.932;25.904;2023-06-24T01:50:12;100459.91;;;20.04;77.63
8705;BME280;4389;41.932;25.904;2023-06-24T01:52:42;100464.28;;;20.05;77.80
8705;BME280;4389;41.932;25.904;2023-06-24T01:55:15;100472.09;;;20.00;77.69
8705;BME280;4389;41.932;25.904;2023-06-24T01:57:43;100478.69;;;19.98;77.77
8705;BME280;4389;41.932;25.904;2023-06-24T02:00:12;100469.28;;;20.08;77.52
8705;BME280;4389;41.932;25.904;2023-06-24T02:02:41;100465.59;;;20.16;77.45
8705;BME280;4389;41.932;25.904;2023-06-24T02:05:09;100463.16;;;19.93;78.63
8705;BME280;4389;41.932;25.904;2023-06-24T02:07:37;100464.97;;;19.86;78.76
8705;BME280;4389;41.932;25.904;2023-06-24T02:10:06;100465.50;;;19.75;79.27
8705;BME280;4389;41.932;25.904;2023-06-24T02:12:35;100468.06;;;19.62;79.83
8705;BME280;4389;41.932;25.904;2023-06-24T02:15:03;100473.78;;;19.53;80.22
8705;BME280;4389;41.932;25.904;2023-06-24T02:17:33;100477.03;;;19.27;81.37
8705;BME280;4389;41.932;25.904;2023-06-24T02:20:04;100479.19;;;19.17;82.25
8705;BME280;4389;41.932;25.904;2023-06-24T02:22:32;100476.41;;;19.25;82.21
8705;BME280;4389;41.932;25.904;2023-06-24T02:24:59;100476.91;;;19.35;81.49
8705;BME280;4389;41.932;25.904;2023-06-24T02:27:27;100479.84;;;19.40;81.08
8705;BME280;4389;41.932;25.904;2023-06-24T02:29:55;100492.69;;;19.45;81.16
8705;BME280;4389;41.932;25.904;2023-06-24T02:32:23;100486.63;;;19.57;80.75
8705;BME280;4389;41.932;25.904;2023-06-24T02:34:50;100486.88;;;19.62;80.16
8705;BME280;4389;41.932;25.904;2023-06-24T02:37:21;100486.38;;;19.31;81.29
8705;BME280;4389;41.932;25.904;2023-06-24T02:39:48;100488.88;;;19.33;80.90
8705;BME280;4389;41.932;25.904;2023-06-24T02:42:15;100491.59;;;19.18;81.54
8705;BME280;4389;41.932;25.904;2023-06-24T02:44:42;100490.41;;;19.06;81.75
8705;BME280;4389;41.932;25.904;2023-06-24T02:47:11;100499.53;;;19.26;81.86
8705;BME280;4389;41.932;25.904;2023-06-24T02:49:40;100495.91;;;18.98;81.98
8705;BME280;4389;41.932;25.904;2023-06-24T02:52:09;100485.78;;;18.80;82.86
8705;BME280;4389;41.932;25.904;2023-06-24T02:54:38;100497.44;;;18.58;83.38
8705;BME280;4389;41.932;25.904;2023-06-24T02:57:06;100499.31;;;18.43;84.37
8705;BME280;4389;41.932;25.904;2023-06-24T02:59:34;100502.66;;;18.45;84.07
8705;BME280;4389;41.932;25.904;2023-06-24T03:02:02;100504.63;;;18.72;83.57
8705;BME280;4389;41.932;25.904;2023-06-24T03:04:30;100506.31;;;19.22;81.53
8705;BME280;4389;41.932;25.904;2023-06-24T03:06:57;100504.81;;;19.83;79.38
8705;BME280;4389;41.932;25.904;2023-06-24T03:09:26;100510.06;;;20.52;75.52
8705;BME280;4389;41.932;25.904;2023-06-24T03:11:55;100514.50;;;20.73;74.10
8705;BME280;4389;41.932;25.904;2023-06-24T03:14:21;100519.84;;;21.00;73.04
8705;BME280;4389;41.932;25.904;2023-06-24T03:16:48;100519.47;;;21.16;72.27
8705;BME280;4389;41.932;25.904;2023-06-24T03:19:15;100523.94;;;21.82;69.94
8705;BME280;4389;41.932;25.904;2023-06-24T03:21:42;100526.59;;;22.47;67.63
8705;BME280;4389;41.932;25.904;2023-06-24T03:24:09;100525.84;;;23.35;63.67
8705;BME280;4389;41.932;25.904;2023-06-24T03:26:37;100529.25;;;24.10;60.59
8705;BME280;4389;41.932;25.904;2023-06-24T03:29:06;100536.53;;;24.52;58.00
8705;BME280;4389;41.932;25.904;2023-06-24T03:31:34;100531.94;;;24.10;59.13
8705;BME280;4389;41.932;25.904;2023-06-24T03:34:00;100537.84;;;24.01;60.23
8705;BME280;4389;41.932;25.904;2023-06-24T03:36:27;100527.09;;;24.79;57.53
8705;BME280;4389;41.932;25.904;2023-06-24T03:38:54;100525.09;;;25.92;53.36
8705;BME280;4389;41.932;25.904;2023-06-24T03:41:21;100539.97;;;26.36;51.61
8705;BME280;4389;41.932;25.904;2023-06-24T03:43:49;100537.56;;;25.41;55.09
8705;BME280;4389;41.932;25.904;2023-06-24T03:46:17;100543.47;;;25.02;56.78
8705;BME280;4389;41.932;25.904;2023-06-24T03:48:44;100542.50;;;25.44;54.97
8705;BME280;4389;41.932;25.904;2023-06-24T03:51:11;100550.72;;;25.67;54.42
8705;BME280;4389;41.932;25.904;2023-06-24T03:53:38;100555.00;;;25.74;53.54
8705;BME280;4389;41.932;25.904;2023-06-24T03:56:05;100550.25;;;25.70;54.16
8705;BME280;4389;41.932;25.904;2023-06-24T03:58:32;100552.25;;;26.04;53.00
8705;BME280;4389;41.932;25.904;2023-06-24T04:01:00;100556.44;;;27.03;50.21
8705;BME280;4389;41.932;25.904;2023-06-24T04:03:28;100561.28;;;27.69;48.69
8705;BME280;4389;41.932;25.904;2023-06-24T04:05:55;100563.34;;;27.90;48.32
8705;BME280;4389;41.932;25.904;2023-06-24T04:08:22;100569.75;;;27.84;48.57
8705;BME280;4389;41.932;25.904;2023-06-24T04:10:51;100560.50;;;28.34;47.69
8705;BME280;4389;41.932;25.904;2023-06-24T04:13:17;100568.59;;;27.80;48.05
8705;BME280;4389;41.932;25.904;2023-06-24T04:15:44;100579.53;;;28.84;46.49
8705;BME280;4389;41.932;25.904;2023-06-24T04:18:11;100565.66;;;28.85;46.14
8705;BME280;4389;41.932;25.904;2023-06-24T04:20:39;100568.13;;;27.99;49.03
8705;BME280;4389;41.932;25.904;2023-06-24T04:23:06;100566.78;;;27.85;49.20
8705;BME280;4389;41.932;25.904;2023-06-24T04:25:35;100573.66;;;28.75;46.61
8705;BME280;4389;41.932;25.904;2023-06-24T04:28:02;100565.88;;;29.70;44.84
8705;BME280;4389;41.932;25.904;2023-06-24T04:30:30;100572.78;;;29.08;45.23
8705;BME280;4389;41.932;25.904;2023-06-24T04:32:56;100574.03;;;29.22;44.96
8705;BME280;4389;41.932;25.904;2023-06-24T04:35:23;100574.28;;;28.99;44.35
8705;BME280;4389;41.932;25.904;2023-06-24T04:37:52;100582.66;;;29.57;42.85
8705;BME280;4389;41.932;25.904;2023-06-24T04:40:19;100584.72;;;30.29;42.06
8705;BME280;4389;41.932;25.904;2023-06-24T04:42:46;100584.34;;;30.98;40.07
8705;BME280;4389;41.932;25.904;2023-06-24T04:45:13;100599.16;;;31.02;40.45
8705;BME280;4389;41.932;25.904;2023-06-24T04:47:40;100596.72;;;31.77;38.36
8705;BME280;4389;41.932;25.904;2023-06-24T04:50:08;100599.47;;;32.72;36.93
8705;BME280;4389;41.932;25.904;2023-06-24T04:52:36;100597.28;;;32.64;37.07
8705;BME280;4389;41.932;25.904;2023-06-24T04:55:05;100583.63;;;32.44;36.61
8705;BME280;4389;41.932;25.904;2023-06-24T04:57:32;100588.25;;;31.12;39.24
8705;BME280;4389;41.932;25.904;2023-06-24T04:59:59;100573.34;;;30.83;40.34
8705;BME280;4389;41.932;25.904;2023-06-24T05:02:26;100574.91;;;29.75;42.37
8705;BME280;4389;41.932;25.904;2023-06-24T05:04:53;100577.19;;;28.54;45.82
8705;BME280;4389;41.932;25.904;2023-06-24T05:07:20;100574.56;;;27.37;48.45
8705;BME280;4389;41.932;25.904;2023-06-24T05:09:47;100570.06;;;26.23;52.42
8705;BME280;4389;41.932;25.904;2023-06-24T05:12:16;100567.47;;;26.05;53.48
8705;BME280;4389;41.932;25.904;2023-06-24T05:14:43;100559.00;;;25.83;54.41
8705;BME280;4389;41.932;25.904;2023-06-24T05:17:10;100561.88;;;25.59;55.23
8705;BME280;4389;41.932;25.904;2023-06-24T05:19:36;100568.88;;;25.37;56.51
8705;BME280;4389;41.932;25.904;2023-06-24T05:22:03;100567.56;;;25.28;57.45
8705;BME280;4389;41.932;25.904;2023-06-24T05:24:31;100564.81;;;25.10;57.21
8705;BME280;4389;41.932;25.904;2023-06-24T05:27:03;100559.66;;;24.90;58.69
8705;BME280;4389;41.932;25.904;2023-06-24T05:29:32;100554.78;;;24.99;59.26
8705;BME280;4389;41.932;25.904;2023-06-24T05:31:58;100558.34;;;25.11;59.61
8705;BME280;4389;41.932;25.904;2023-06-24T05:34:27;100568.44;;;25.22;57.39
8705;BME280;4389;41.932;25.904;2023-06-24T05:36:53;100567.69;;;25.15;58.22
8705;BME280;4389;41.932;25.904;2023-06-24T05:39:20;100571.22;;;25.33;57.32
8705;BME280;4389;41.932;25.904;2023-06-24T05:41:47;100575.94;;;25.38;56.48
8705;BME280;4389;41.932;25.904;2023-06-24T05:44:14;100575.97;;;25.20;58.18
8705;BME280;4389;41.932;25.904;2023-06-24T05:46:45;100576.84;;;25.32;57.55
8705;BME280;4389;41.932;25.904;2023-06-24T05:49:12;100577.34;;;25.29;57.55
8705;BME280;4389;41.932;25.904;2023-06-24T05:51:38;100587.41;;;25.40;56.45
8705;BME280;4389;41.932;25.904;2023-06-24T05:54:05;100587.34;;;25.58;55.92
8705;BME280;4389;41.932;25.904;2023-06-24T05:56:33;100583.63;;;25.82;55.02
8705;BME280;4389;41.932;25.904;2023-06-24T05:58:59;100589.75;;;25.95;54.64
8705;BME280;4389;41.932;25.904;2023-06-24T06:01:26;100588.53;;;25.91;54.71
8705;BME280;4389;41.932;25.904;2023-06-24T06:03:55;100587.16;;;25.71;56.18
8705;BME280;4389;41.932;25.904;2023-06-24T06:06:21;100582.19;;;25.68;56.14
8705;BME280;4389;41.932;25.904;2023-06-24T06:08:48;100587.88;;;25.66;55.55
8705;BME280;4389;41.932;25.904;2023-06-24T06:11:15;100595.16;;;25.95;54.67
8705;BME280;4389;41.932;25.904;2023-06-24T06:13:42;100594.75;;;26.21;55.22
8705;BME280;4389;41.932;25.904;2023-06-24T06:16:09;100592.00;;;26.10;55.75
8705;BME280;4389;41.932;25.904;2023-06-24T06:18:36;100584.19;;;26.02;55.79
8705;BME280;4389;41.932;25.904;2023-06-24T06:21:04;100583.91;;;26.21;56.31
8705;BME280;4389;41.932;25.904;2023-06-24T06:23:31;100585.41;;;26.40;54.72
8705;BME280;4389;41.932;25.904;2023-06-24T06:25:58;100581.41;;;26.43;54.14
8705;BME280;4389;41.932;25.904;2023-06-24T06:28:24;100582.13;;;26.50;54.18
8705;BME280;4389;41.932;25.904;2023-06-24T06:30:51;100585.00;;;26.55;54.29
8705;BME280;4389;41.932;25.904;2023-06-24T06:33:18;100584.50;;;26.58;54.31
8705;BME280;4389;41.932;25.904;2023-06-24T06:35:45;100581.34;;;26.61;53.93
8705;BME280;4389;41.932;25.904;2023-06-24T06:38:13;100571.25;;;26.50;53.70
8705;BME280;4389;41.932;25.904;2023-06-24T06:40:40;100576.22;;;26.53;53.72
8705;BME280;4389;41.932;25.904;2023-06-24T06:43:07;100575.06;;;26.72;54.12
8705;BME280;4389;41.932;25.904;2023-06-24T06:45:34;100577.84;;;27.00;52.27
8705;BME280;4389;41.932;25.904;2023-06-24T06:48:02;100568.72;;;27.17;52.56
8705;BME280;4389;41.932;25.904;2023-06-24T06:50:32;100560.34;;;27.47;51.35
8705;BME280;4389;41.932;25.904;2023-06-24T06:53:00;100550.72;;;27.56;51.71
8705;BME280;4389;41.932;25.904;2023-06-24T06:55:28;100557.16;;;27.66;50.85
8705;BME280;4389;41.932;25.904;2023-06-24T06:57:55;100557.50;;;27.70;50.50
8705;BME280;4389;41.932;25.904;2023-06-24T07:00:22;100565.84;;;27.80;51.03
8705;BME280;4389;41.932;25.904;2023-06-24T07:02:49;100554.97;;;27.52;49.52
8705;BME280;4389;41.932;25.904;2023-06-24T07:05:16;100550.41;;;27.69;50.87
8705;BME280;4389;41.932;25.904;2023-06-24T07:07:43;100553.94;;;28.14;49.19
8705;BME280;4389;41.932;25.904;2023-06-24T07:10:11;100552.78;;;28.10;48.55
8705;BME280;4389;41.932;25.904;2023-06-24T07:12:39;100558.22;;;28.10;48.90
8705;BME280;4389;41.932;25.904;2023-06-24T07:15:06;100562.19;;;28.19;47.10
8705;BME280;4389;41.932;25.904;2023-06-24T07:17:33;100553.41;;;28.17;47.14
8705;BME280;4389;41.932;25.904;2023-06-24T07:20:00;100560.84;;;28.38;46.30
8705;BME280;4389;41.932;25.904;2023-06-24T07:22:27;100553.28;;;28.40;46.63
8705;BME280;4389;41.932;25.904;2023-06-24T07:24:56;100550.78;;;28.55;46.54
8705;BME280;4389;41.932;25.904;2023-06-24T07:27:22;100550.91;;;28.65;46.53
8705;BME280;4389;41.932;25.904;2023-06-24T07:29:50;100548.91;;;28.77;47.35
8705;BME280;4389;41.932;25.904;2023-06-24T07:32:17;100541.59;;;28.82;46.85
8705;BME280;4389;41.932;25.904;2023-06-24T07:34:44;100539.09;;;28.97;47.30
8705;BME280;4389;41.932;25.904;2023-06-24T07:37:11;100540.06;;;29.08;46.91
8705;BME280;4389;41.932;25.904;2023-06-24T07:39:38;100532.34;;;29.26;45.98
8705;BME280;4389;41.932;25.904;2023-06-24T07:42:05;100541.19;;;29.12;46.00
8705;BME280;4389;41.932;25.904;2023-06-24T07:44:32;100537.16;;;29.14;46.89
8705;BME280;4389;41.932;25.904;2023-06-24T07:47:00;100527.81;;;29.10;47.17
8705;BME280;4389;41.932;25.904;2023-06-24T07:49:26;100533.34;;;28.94;47.14
8705;BME280;4389;41.932;25.904;2023-06-24T07:51:53;100528.88;;;28.88;47.70
8705;BME280;4389;41.932;25.904;2023-06-24T07:54:20;100521.72;;;29.03;46.99
8705;BME280;4389;41.932;25.904;2023-06-24T07:56:47;100527.13;;;29.20;45.97
8705;BME280;4389;41.932;25.904;2023-06-24T07:59:14;100521.34;;;29.43;45.32
8705;BME280;4389;41.932;25.904;2023-06-24T08:01:40;100524.31;;;29.63;43.88
8705;BME280;4389;41.932;25.904;2023-06-24T08:04:09;100516.31;;;29.83;42.50
8705;BME280;4389;41.932;25.904;2023-06-24T08:06:36;100524.31;;;29.94;42.98
8705;BME280;4389;41.932;25.904;2023-06-24T08:09:03;100530.88;;;30.25;41.85
8705;BME280;4389;41.932;25.904;2023-06-24T08:11:29;100526.00;;;30.32;42.18
8705;BME280;4389;41.932;25.904;2023-06-24T08:13:56;100536.59;;;30.23;41.07
8705;BME280;4389;41.932;25.904;2023-06-24T08:16:23;100530.38;;;30.01;41.56
8705;BME280;4389;41.932;25.904;2023-06-24T08:18:50;100525.66;;;29.92;41.21
8705;BME280;4389;41.932;25.904;2023-06-24T08:21:18;100530.38;;;30.01;41.06
8705;BME280;4389;41.932;25.904;2023-06-24T08:23:46;100533.84;;;30.23;40.21
8705;BME280;4389;41.932;25.904;2023-06-24T08:26:13;100529.34;;;30.38;39.65
8705;BME280;4389;41.932;25.904;2023-06-24T08:28:40;100536.38;;;30.71;39.08
8705;BME280;4389;41.932;25.904;2023-06-24T08:31:07;100544.34;;;30.77;39.15
8705;BME280;4389;41.932;25.904;2023-06-24T08:33:34;100542.72;;;30.86;36.88
8705;BME280;4389;41.932;25.904;2023-06-24T08:36:00;100547.06;;;30.77;38.03
8705;BME280;4389;41.932;25.904;2023-06-24T08:38:29;100552.59;;;30.87;37.78
8705;BME280;4389;41.932;25.904;2023-06-24T08:40:56;100542.81;;;31.06;37.86
8705;BME280;4389;41.932;25.904;2023-06-24T08:43:23;100545.09;;;31.24;37.12
8705;BME280;4389;41.932;25.904;2023-06-24T08:45:49;100550.44;;;30.99;36.70
8705;BME280;4389;41.932;25.904;2023-06-24T08:48:18;100546.63;;;31.00;36.36
8705;BME280;4389;41.932;25.904;2023-06-24T08:50:50;100539.75;;;30.93;37.17
8705;BME280;4389;41.932;25.904;2023-06-24T08:53:18;100542.75;;;30.91;37.53
8705;BME280;4389;41.932;25.904;2023-06-24T08:55:49;100532.44;;;31.08;35.73
8705;BME280;4389;41.932;25.904;2023-06-24T08:58:19;100542.53;;;30.98;36.38
8705;BME280;4389;41.932;25.904;2023-06-24T09:00:46;100542.28;;;31.14;35.81
8705;BME280;4389;41.932;25.904;2023-06-24T09:03:13;100548.94;;;31.28;34.43
8705;BME280;4389;41.932;25.904;2023-06-24T09:05:40;100553.06;;;31.31;33.58
8705;BME280;4389;41.932;25.904;2023-06-24T09:08:07;100543.44;;;31.18;33.35
8705;BME280;4389;41.932;25.904;2023-06-24T09:10:35;100541.25;;;31.20;33.14
8705;BME280;4389;41.932;25.904;2023-06-24T09:13:04;100544.97;;;30.99;33.72
8705;BME280;4389;41.932;25.904;2023-06-24T09:15:31;100547.41;;;30.96;33.31
8705;BME280;4389;41.932;25.904;2023-06-24T09:17:58;100548.28;;;31.01;33.40
8705;BME280;4389;41.932;25.904;2023-06-24T09:20:26;100540.06;;;31.06;30.61
8705;BME280;4389;41.932;25.904;2023-06-24T09:22:58;100534.03;;;30.99;31.71
8705;BME280;4389;41.932;25.904;2023-06-24T09:25:25;100516.53;;;31.00;32.83
8705;BME280;4389;41.932;25.904;2023-06-24T09:27:52;100522.28;;;31.04;32.68
8705;BME280;4389;41.932;25.904;2023-06-24T09:30:23;100519.38;;;31.20;33.99
8705;BME280;4389;41.932;25.904;2023-06-24T09:32:50;100523.53;;;31.43;33.97
8705;BME280;4389;41.932;25.904;2023-06-24T09:35:19;100515.34;;;31.58;34.24
8705;BME280;4389;41.932;25.904;2023-06-24T09:37:50;100515.03;;;31.29;34.25
8705;BME280;4389;41.932;25.904;2023-06-24T09:40:17;100511.72;;;31.27;34.97
8705;BME280;4389;41.932;25.904;2023-06-24T09:42:49;100510.66;;;31.38;35.43
8705;BME280;4389;41.932;25.904;2023-06-24T09:45:20;100515.59;;;31.46;34.64
8705;BME280;4389;41.932;25.904;2023-06-24T09:47:48;100499.16;;;31.41;34.38
8705;BME280;4389;41.932;25.904;2023-06-24T09:50:15;100511.28;;;31.75;34.47
8705;BME280;4389;41.932;25.904;2023-06-24T09:52:42;100508.28;;;31.92;32.98
8705;BME280;4389;41.932;25.904;2023-06-24T09:55:12;100506.31;;;31.67;33.58
8705;BME280;4389;41.932;25.904;2023-06-24T09:57:40;100512.31;;;31.64;33.99
8705;BME280;4389;41.932;25.904;2023-06-24T10:00:09;100507.16;;;31.73;33.31
8705;BME280;4389;41.932;25.904;2023-06-24T10:02:37;100501.09;;;31.66;33.13
8705;BME280;4389;41.932;25.904;2023-06-24T10:05:06;100492.09;;;31.90;33.03
8705;BME280;4389;41.932;25.904;2023-06-24T10:07:34;100491.53;;;32.28;32.84
8705;BME280;4389;41.932;25.904;2023-06-24T10:10:02;100504.03;;;32.64;31.83
8705;BME280;4389;41.932;25.904;2023-06-24T10:12:29;100490.00;;;32.86;31.53
8705;BME280;4389;41.932;25.904;2023-06-24T10:14:57;100499.69;;;32.58;31.86
8705;BME280;4389;41.932;25.904;2023-06-24T10:17:25;100490.38;;;32.59;31.52
8705;BME280;4389;41.932;25.904;2023-06-24T10:19:52;100492.00;;;32.60;31.68
8705;BME280;4389;41.932;25.904;2023-06-24T10:22:22;100489.72;;;32.87;30.48
8705;BME280;4389;41.932;25.904;2023-06-24T10:24:50;100489.41;;;32.99;30.74
8705;BME280;4389;41.932;25.904;2023-06-24T10:27:19;100479.72;;;33.11;30.40
8705;BME280;4389;41.932;25.904;2023-06-24T10:29:49;100481.91;;;33.14;29.58
8705;BME280;4389;41.932;25.904;2023-06-24T10:32:16;100476.38;;;33.19;29.94
8705;BME280;4389;41.932;25.904;2023-06-24T10:34:45;100452.84;;;33.08;29.71
8705;BME280;4389;41.932;25.904;2023-06-24T10:37:13;100450.03;;;33.18;30.33
8705;BME280;4389;41.932;25.904;2023-06-24T10:39:47;100449.28;;;33.08;30.67
8705;BME280;4389;41.932;25.904;2023-06-24T10:42:37;100443.13;;;32.82;30.32
8705;BME280;4389;41.932;25.904;2023-06-24T10:45:18;100443.13;;;32.77;30.88
8705;BME280;4389;41.932;25.904;2023-06-24T10:47:47;100436.19;;;32.95;29.95
8705;BME280;4389;41.932;25.904;2023-06-24T10:50:20;100427.72;;;33.35;29.80
8705;BME280;4389;41.932;25.904;2023-06-24T10:52:48;100423.94;;;33.59;29.04
8705;BME280;4389;41.932;25.904;2023-06-24T10:55:17;100420.00;;;33.70;28.71
8705;BME280;4389;41.932;25.904;2023-06-24T10:57:45;100411.22;;;33.68;28.24
8705;BME280;4389;41.932;25.904;2023-06-24T11:00:13;100408.47;;;33.68;28.78
8705;BME280;4389;41.932;25.904;2023-06-24T11:02:41;100412.88;;;33.69;28.73
8705;BME280;4389;41.932;25.904;2023-06-24T11:05:08;100405.47;;;33.98;27.90
8705;BME280;4389;41.932;25.904;2023-06-24T11:07:37;100402.66;;;34.03;27.49
8705;BME280;4389;41.932;25.904;2023-06-24T11:10:05;100397.06;;;33.90;27.91
8705;BME280;4389;41.932;25.904;2023-06-24T11:12:36;100386.84;;;33.62;28.37
8705;BME280;4389;41.932;25.904;2023-06-24T11:15:04;100380.31;;;33.86;28.23
8705;BME280;4389;41.932;25.904;2023-06-24T11:17:32;100389.91;;;34.12;27.88
8705;BME280;4389;41.932;25.904;2023-06-24T11:19:59;100393.13;;;34.24;26.42
8705;BME280;4389;41.932;25.904;2023-06-24T11:22:26;100389.81;;;34.22;27.26
8705;BME280;4389;41.932;25.904;2023-06-24T11:24:54;100382.44;;;33.94;27.34
8705;BME280;4389;41.932;25.904;2023-06-24T11:27:26;100382.53;;;33.84;27.93
8705;BME280;4389;41.932;25.904;2023-06-24T11:29:56;100376.81;;;34.04;26.95
8705;BME280;4389;41.932;25.904;2023-06-24T11:32:23;100381.13;;;33.87;27.20
8705;BME280;4389;41.932;25.904;2023-06-24T11:34:50;100377.84;;;33.85;27.16
8705;BME280;4389;41.932;25.904;2023-06-24T11:37:18;100377.41;;;34.01;26.52
8705;BME280;4389;41.932;25.904;2023-06-24T11:40:00;100373.78;;;34.06;26.69
8705;BME280;4389;41.932;25.904;2023-06-24T11:42:28;100367.91;;;34.12;26.74
8705;BME280;4389;41.932;25.904;2023-06-24T11:45:00;100362.22;;;34.32;26.74
8705;BME280;4389;41.932;25.904;2023-06-24T11:47:31;100359.63;;;34.41;26.30
8705;BME280;4389;41.932;25.904;2023-06-24T11:50:00;100349.38;;;34.46;26.81
8705;BME280;4389;41.932;25.904;2023-06-24T11:52:43;100350.00;;;34.62;26.33
8705;BME280;4389;41.932;25.904;2023-06-24T11:55:12;100355.59;;;34.75;26.48
8705;BME280;4389;41.932;25.904;2023-06-24T11:57:53;100346.34;;;34.66;25.67
8705;BME280;4389;41.932;25.904;2023-06-24T12:00:22;100352.94;;;34.28;25.77
8705;BME280;4389;41.932;25.904;2023-06-24T12:02:52;100343.84;;;34.28;27.07
8705;BME280;4389;41.932;25.904;2023-06-24T12:05:27;100337.72;;;34.54;25.77
8705;BME280;4389;41.932;25.904;2023-06-24T12:07:55;100332.22;;;34.54;24.93
8705;BME280;4389;41.932;25.904;2023-06-24T12:10:22;100328.28;;;34.60;25.62
8705;BME280;4389;41.932;25.904;2023-06-24T12:12:50;100329.34;;;34.83;26.37
8705;BME280;4389;41.932;25.904;2023-06-24T12:15:16;100323.41;;;34.76;26.17
8705;BME280;4389;41.932;25.904;2023-06-24T12:17:45;100317.75;;;34.86;26.16
8705;BME280;4389;41.932;25.904;2023-06-24T12:20:13;100315.41;;;35.11;25.28
8705;BME280;4389;41.932;25.904;2023-06-24T12:22:40;100317.03;;;35.12;24.67
8705;BME280;4389;41.932;25.904;2023-06-24T12:25:08;100314.78;;;34.82;25.00
8705;BME280;4389;41.932;25.904;2023-06-24T12:27:35;100309.63;;;34.57;25.04
8705;BME280;4389;41.932;25.904;2023-06-24T12:30:03;100307.69;;;34.39;25.42
8705;BME280;4389;41.932;25.904;2023-06-24T12:32:30;100304.72;;;34.54;24.58
8705;BME280;4389;41.932;25.904;2023-06-24T12:34:58;100306.50;;;34.82;24.97
8705;BME280;4389;41.932;25.904;2023-06-24T12:37:25;100301.53;;;35.03;24.36
8705;BME280;4389;41.932;25.904;2023-06-24T12:39:52;100306.28;;;34.97;25.11
8705;BME280;4389;41.932;25.904;2023-06-24T12:42:18;100306.19;;;35.02;24.63
8705;BME280;4389;41.932;25.904;2023-06-24T12:44:45;100301.25;;;35.18;24.68
8705;BME280;4389;41.932;25.904;2023-06-24T12:47:12;100293.06;;;35.31;24.52
8705;BME280;4389;41.932;25.904;2023-06-24T12:49:39;100288.25;;;35.37;24.77
8705;BME280;4389;41.932;25.904;2023-06-24T12:52:08;100284.50;;;35.46;24.98
8705;BME280;4389;41.932;25.904;2023-06-24T12:54:35;100286.47;;;35.59;25.04
8705;BME280;4389;41.932;25.904;2023-06-24T12:57:02;100286.13;;;35.47;25.02
8705;BME280;4389;41.932;25.904;2023-06-24T12:59:29;100283.22;;;35.57;24.80
8705;BME280;4389;41.932;25.904;2023-06-24T13:01:56;100290.63;;;35.43;24.92
8705;BME280;4389;41.932;25.904;2023-06-24T13:04:22;100276.81;;;35.75;24.77
8705;BME280;4389;41.932;25.904;2023-06-24T13:06:51;100280.25;;;35.67;24.94